Time;durP1;ratioP1;P1;durP2;ratioP2;P2;SDS_P1;SDS_P2;PMS_P1;PMS_P2;Temp;Humidity;BMP_temperature;BMP_pressure;BME280_temperature;BME280_humidity;BME280_pressure;Samples;Min_cycle;Max_cycle;Signal;HPM_P1;HPM_P2
2023/09/22 00:00:43;;;;;;;;;;;;;;;;;;6367557;27;19923;-69
2023/09/22 00:03:43;;;;;;;;;;;;;;;;;;6363324;27;20362;-70
2023/09/22 00:06:44;;;;;;;;;;;;;;;;;;6356665;27;20021;-70
2023/09/22 00:09:44;;;;;;;;;;;;;;;;;;6355097;27;19934;-69
2023/09/22 00:12:45;;;;;;;;;;;;;;;;;;6340474;27;19923;-69
2023/09/22 00:15:45;;;;;;;;;;;;;;;;;;6366564;27;19911;-69
2023/09/22 00:18:45;;;;;;;;;;;;;;;;;;6356335;27;19969;-69
2023/09/22 00:21:45;;;;;;;;;;;;;;;;;;6367411;27;20318;-69
2023/09/22 00:24:45;;;;;;;;;;;;;;;;;;6360239;27;20345;-69
2023/09/22 00:27:45;;;;;;;;;;;;;;;;;;6356536;27;19989;-68
2023/09/22 00:30:47;;;;;;;;;;;;;;;;;;6362082;27;19923;-68
2023/09/22 00:33:47;;;;;;;;;;;;;;;;;;6363744;27;19954;-71
2023/09/22 00:36:49;;;;;;;;;;;;;;;;;;6366748;27;19911;-67
2023/09/22 00:39:49;;;;;;;;;;;;;;;;;;6345733;27;19919;-68
2023/09/22 00:42:49;;;;;;;;;;;;;;;;;;6351551;27;20349;-69
2023/09/22 00:45:49;;;;;;;;;;;;;;;;;;6362705;27;19917;-69
2023/09/22 00:48:49;;;;;;;;;;;;;;;;;;6349717;27;19969;-68
2023/09/22 00:51:49;;;;;;;;;;;;;;;;;;6358925;27;20389;-76
2023/09/22 00:54:50;;;;;;;;;;;;;;;;;;6358133;27;19912;-76
2023/09/22 00:57:50;;;;;;;;;;;;;;;;;;6359693;27;19919;-77
2023/09/22 01:00:52;;;;;;;;;;;;;;;;;;6354608;27;19911;-77
2023/09/22 01:03:52;;;;;;;;;;;;;;;;;;6364151;27;19931;-76
2023/09/22 01:06:52;;;;;;;;;;;;;;;;;;6362370;27;19989;-76
2023/09/22 01:09:52;;;;;;;;;;;;;;;;;;6359007;27;20010;-76
2023/09/22 01:12:54;;;;;;;;;;;;;;;;;;6361612;27;19918;-76
2023/09/22 01:15:54;;;;;;;;;;;;;;;;;;6356235;27;19912;-76
2023/09/22 01:18:54;;;;;;;;;;;;;;;;;;6362831;27;19920;-75
2023/09/22 01:21:55;;;;;;;;;;;;;;;;;;6356862;27;19911;-78
2023/09/22 01:24:55;;;;;;;;;;;;;;;;;;6359788;27;20337;-76
2023/09/22 01:27:55;;;;;;;;;;;;;;;;;;6355202;27;20434;-76
2023/09/22 01:30:55;;;;;;;;;;;;;;;;;;6363697;27;19916;-76
2023/09/22 01:33:56;;;;;;;;;;;;;;;;;;6363917;27;19942;-75
2023/09/22 01:36:57;;;;;;;;;;;;;;;;;;6357656;27;19918;-75
2023/09/22 01:39:58;;;;;;;;;;;;;;;;;;6353407;27;19916;-76
2023/09/22 01:42:58;;;;;;;;;;;;;;;;;;6367142;27;19919;-76
2023/09/22 01:45:58;;;;;;;;;;;;;;;;;;6364757;27;19918;-76
2023/09/22 01:48:58;;;;;;;;;;;;;;;;;;6349798;27;19912;-76
2023/09/22 01:51:58;;;;;;;;;;;;;;;;;;6361347;27;20381;-76
2023/09/22 01:54:59;;;;;;;;;;;;;;;;;;6359739;27;19984;-76
2023/09/22 01:57:59;;;;;;;;;;;;;;;;;;6364290;27;19923;-76
2023/09/22 02:00:59;;;;;;;;;;;;;;;;;;6357954;27;19915;-67
2023/09/22 02:03:59;;;;;;;;;;;;;;;;;;6359543;27;20369;-69
2023/09/22 02:06:59;;;;;;;;;;;;;;;;;;6360163;27;19920;-67
2023/09/22 02:10:00;;;;;;;;;;;;;;;;;;6371641;27;19918;-67
2023/09/22 02:13:00;;;;;;;;;;;;;;;;;;6363327;27;20300;-67
2023/09/22 02:16:00;;;;;;;;;;;;;;;;;;6363706;27;19957;-68
2023/09/22 02:19:00;;;;;;;;;;;;;;;;;;6358786;27;19975;-69
2023/09/22 02:22:01;;;;;;;;;;;;;;;;;;6365672;27;20334;-69
2023/09/22 02:25:01;;;;;;;;;;;;;;;;;;6363319;27;19919;-69
2023/09/22 02:28:01;;;;;;;;;;;;;;;;;;6356601;27;19995;-69
2023/09/22 02:31:01;;;;;;;;;;;;;;;;;;6345290;27;19923;-68
2023/09/22 02:34:01;;;;;;;;;;;;;;;;;;6363176;27;20020;-68
2023/09/22 02:37:01;;;;;;;;;;;;;;;;;;6367134;27;19915;-69
2023/09/22 02:40:02;;;;;;;;;;;;;;;;;;6348311;27;19943;-68
2023/09/22 02:43:03;;;;;;;;;;;;;;;;;;6348054;27;19926;-69
2023/09/22 02:46:03;;;;;;;;;;;;;;;;;;6353706;27;20298;-70
2023/09/22 02:49:03;;;;;;;;;;;;;;;;;;6354652;27;19923;-69
2023/09/22 02:52:04;;;;;;;;;;;;;;;;;;6361096;27;20291;-69
2023/09/22 02:55:04;;;;;;;;;;;;;;;;;;6363943;27;19938;-70
2023/09/22 02:58:04;;;;;;;;;;;;;;;;;;6361070;27;20372;-69
2023/09/22 03:01:05;;;;;;;;;;;;;;;;;;6356846;27;19919;-68
2023/09/22 03:04:09;;;;;;;;;;;;;;;;;;6353325;27;20375;-68
2023/09/22 03:07:09;;;;;;;;;;;;;;;;;;6362698;27;20372;-68
2023/09/22 03:10:10;;;;;;;;;;;;;;;;;;6359694;27;19977;-68
2023/09/22 03:13:11;;;;;;;;;;;;;;;;;;6355183;27;19915;-68
2023/09/22 03:16:11;;;;;;;;;;;;;;;;;;6362785;27;20372;-68
2023/09/22 03:19:12;;;;;;;;;;;;;;;;;;6369430;27;19945;-68
2023/09/22 03:22:12;;;;;;;;;;;;;;;;;;6367913;27;19944;-69
2023/09/22 03:25:12;;;;;;;;;;;;;;;;;;6359259;27;19922;-68
2023/09/22 03:28:13;;;;;;;;;;;;;;;;;;6352029;28;19916;-68
2023/09/22 03:31:13;;;;;;;;;;;;;;;;;;6336132;28;19924;-69
2023/09/22 03:34:13;;;;;;;;;;;;;;;;;;6350494;28;19912;-68
2023/09/22 03:37:13;;;;;;;;;;;;;;;;;;6350799;28;19955;-68
2023/09/22 03:40:14;;;;;;;;;;;;;;;;;;6361800;28;19926;-68
2023/09/22 03:43:14;;;;;;;;;;;;;;;;;;6361442;28;19916;-69
2023/09/22 03:46:14;;;;;;;;;;;;;;;;;;6352334;28;19959;-69
2023/09/22 03:49:15;;;;;;;;;;;;;;;;;;6348872;28;19911;-68
2023/09/22 03:52:15;;;;;;;;;;;;;;;;;;6352915;28;19961;-69
2023/09/22 03:55:15;;;;;;;;;;;;;;;;;;6326017;28;19946;-69
2023/09/22 03:58:17;;;;;;;;;;;;;;;;;;6356108;28;20285;-69
2023/09/22 04:01:17;;;;;;;;;;;;;;;;;;6350620;28;20004;-68
2023/09/22 04:04:17;;;;;;;;;;;;;;;;;;6349397;28;20361;-70
2023/09/22 04:07:17;;;;;;;;;;;;;;;;;;6340647;28;20272;-69
2023/09/22 04:10:18;;;;;;;;;;;;;;;;;;6356163;28;20323;-69
2023/09/22 04:13:18;;;;;;;;;;;;;;;;;;6357809;28;19916;-69
2023/09/22 04:16:19;;;;;;;;;;;;;;;;;;6351512;28;20039;-69
2023/09/22 04:19:19;;;;;;;;;;;;;;;;;;6351480;28;19915;-78
2023/09/22 04:22:21;;;;;;;;;;;;;;;;;;6357830;28;19912;-78
2023/09/22 04:25:29;;;;;;;;;;;;;;;;;;6351614;28;20009;-78
2023/09/22 04:28:30;;;;;;;;;;;;;;;;;;6348182;28;19912;-78
2023/09/22 04:31:30;;;;;;;;;;;;;;;;;;6355575;28;20239;-78
2023/09/22 04:34:31;;;;;;;;;;;;;;;;;;6355014;27;19992;-77
2023/09/22 04:37:32;;;;;;;;;;;;;;;;;;6356105;27;19916;-77
2023/09/22 04:40:36;;;;;;;;;;;;;;;;;;6339954;27;19915;-77
2023/09/22 04:43:36;;;;;;;;;;;;;;;;;;6367008;27;19955;-77
2023/09/22 04:46:37;;;;;;;;;;;;;;;;;;6373544;27;20395;-77
2023/09/22 04:49:37;;;;;;;;;;;;;;;;;;6354476;27;19912;-77
2023/09/22 04:52:37;;;;;;;;;;;;;;;;;;6358227;27;19930;-78
2023/09/22 04:55:37;;;;;;;;;;;;;;;;;;6360375;27;19915;-76
2023/09/22 04:58:38;;;;;;;;;;;;;;;;;;6355933;27;19918;-77
2023/09/22 05:01:39;;;;;;;;;;;;;;;;;;6359589;27;19911;-78
2023/09/22 05:04:39;;;;;;;;;;;;;;;;;;6353418;27;20386;-77
2023/09/22 05:07:39;;;;;;;;;;;;;;;;;;6356880;27;19953;-77
2023/09/22 05:10:39;;;;;;;;;;;;;;;;;;6356702;27;20015;-77
2023/09/22 05:13:40;;;;;;;;;;;;;;;;;;6356841;27;20401;-77
2023/09/22 05:16:42;;;;;;;;;;;;;;;;;;6360694;27;20233;-77
2023/09/22 05:19:42;;;;;;;;;;;;;;;;;;6353538;27;19912;-76
2023/09/22 05:22:42;;;;;;;;;;;;;;;;;;6360325;27;19949;-77
2023/09/22 05:25:43;;;;;;;;;;;;;;;;;;6354734;27;19951;-76
2023/09/22 05:28:45;;;;;;;;;;;;;;;;;;6357196;27;19954;-76
2023/09/22 05:31:45;;;;;;;;;;;;;;;;;;6355039;27;20014;-68
2023/09/22 05:34:45;;;;;;;;;;;;;;;;;;6367694;27;19962;-67
2023/09/22 05:37:45;;;;;;;;;;;;;;;;;;6367612;27;19911;-70
2023/09/22 05:40:46;;;;;;;;;;;;;;;;;;6361403;27;19923;-69
2023/09/22 05:43:46;;;;;;;;;;;;;;;;;;6355563;27;19923;-69
2023/09/22 05:46:46;;;;;;;;;;;;;;;;;;6350835;27;19912;-69
2023/09/22 05:49:47;;;;;;;;;;;;;;;;;;6355310;27;19935;-69
2023/09/22 05:52:47;;;;;;;;;;;;;;;;;;6355570;27;19960;-69
2023/09/22 05:55:47;;;;;;;;;;;;;;;;;;6359234;27;19911;-69
2023/09/22 05:58:48;;;;;;;;;;;;;;;;;;6358568;27;19957;-69
2023/09/22 06:01:48;;;;;;;;;;;;;;;;;;6342994;27;19911;-69
2023/09/22 06:04:48;;;;;;;;;;;;;;;;;;6350621;27;19924;-69
2023/09/22 06:07:48;;;;;;;;;;;;;;;;;;6367906;27;20335;-68
2023/09/22 06:10:48;;;;;;;;;;;;;;;;;;6370798;27;20297;-68
2023/09/22 06:13:49;;;;;;;;;;;;;;;;;;6363678;27;19918;-69
2023/09/22 06:16:49;;;;;;;;;;;;;;;;;;6366001;27;20530;-68
2023/09/22 06:19:49;;;;;;;;;;;;;;;;;;6351573;27;19984;-68
2023/09/22 06:22:49;;;;;;;;;;;;;;;;;;6357067;27;19934;-69
2023/09/22 06:25:50;;;;;;;;;;;;;;;;;;6358039;27;19969;-68
2023/09/22 06:28:50;;;;;;;;;;;;;;;;;;6360688;27;19937;-69
2023/09/22 06:31:51;;;;;;;;;;;;;;;;;;6363386;27;19912;-69
2023/09/22 06:34:53;;;;;;;;;;;;;;;;;;6355552;27;19911;-68
2023/09/22 06:37:53;;;;;;;;;;;;;;;;;;6352990;27;19919;-69
2023/09/22 06:40:56;;;;;;;;;;;;;;;;;;6352865;27;19976;-69
2023/09/22 06:43:56;;;;;;;;;;;;;;;;;;6361245;27;19939;-68
2023/09/22 06:46:57;;;;;;;;;;;;;;;;;;6354491;27;19908;-69
2023/09/22 06:49:59;;;;;;;;;;;;;;;;;;6362442;27;19934;-69
2023/09/22 06:52:59;;;;;;;;;;;;;;;;;;6369889;27;20011;-69
2023/09/22 06:55:59;;;;;;;;;;;;;;;;;;6364704;27;20026;-68
2023/09/22 06:58:59;;;;;;;;;;;;;;;;;;6356406;27;19908;-68
2023/09/22 07:02:00;;;;;;;;;;;;;;;;;;6355099;27;20341;-69
2023/09/22 07:05:00;;;;;;;;;;;;;;;;;;6351423;27;19928;-68
2023/09/22 07:08:03;;;;;;;;;;;;;;;;;;6354987;27;19915;-69
2023/09/22 07:11:04;;;;;;;;;;;;;;;;;;6350796;27;19919;-76
2023/09/22 07:14:07;;;;;;;;;;;;;;;;;;6351638;27;20408;-77
2023/09/22 07:17:08;;;;;;;;;;;;;;;;;;6351439;27;19915;-70
2023/09/22 07:20:08;;;;;;;;;;;;;;;;;;6348107;27;20032;-70
2023/09/22 07:23:09;;;;;;;;;;;;;;;;;;6365027;27;19915;-70
2023/09/22 07:26:09;;;;;;;;;;;;;;;;;;6359774;27;19954;-70
2023/09/22 07:29:09;;;;;;;;;;;;;;;;;;6357114;27;19919;-70
2023/09/22 07:32:09;;;;;;;;;;;;;;;;;;6355799;28;20430;-70
2023/09/22 07:35:10;;;;;;;;;;;;;;;;;;6353181;28;19912;-73
2023/09/22 07:38:10;;;;;;;;;;;;;;;;;;6357697;28;19911;-71
2023/09/22 07:41:10;;;;;;;;;;;;;;;;;;6350889;28;19922;-70
2023/09/22 07:44:11;;;;;;;;;;;;;;;;;;6350853;28;19973;-72
2023/09/22 07:47:14;;;;;;;;;;;;;;;;;;6349684;28;20323;-71
2023/09/22 07:50:14;;;;;;;;;;;;;;;;;;6350806;28;19965;-71
2023/09/22 07:53:14;;;;;;;;;;;;;;;;;;6359564;28;19915;-72
2023/09/22 07:56:16;;;;;;;;;;;;;;;;;;6349405;28;19922;-72
2023/09/22 07:59:17;;;;;;;;;;;;;;;;;;6354437;28;19927;-76
2023/09/22 08:02:17;;;;;;;;;;;;;;;;;;6352988;28;19911;-70
2023/09/22 08:05:18;;;;;;;;;;;;;;;;;;6351193;28;20397;-71
2023/09/22 08:08:18;;;;;;;;;;;;;;;;;;6355076;27;19980;-70
2023/09/22 08:11:19;;;;;;;;;;;;;;;;;;6354983;27;19941;-71
2023/09/22 08:14:21;;;;;;;;;;;;;;;;;;6337485;27;20006;-70
2023/09/22 08:17:21;;;;;;;;;;;;;;;;;;6356100;27;19912;-76
2023/09/22 08:20:21;;;;;;;;;;;;;;;;;;6351625;27;19942;-77
2023/09/22 08:23:22;;;;;;;;;;;;;;;;;;6360137;27;19919;-77
2023/09/22 08:26:23;;;;;;;;;;;;;;;;;;6330815;27;19926;-75
2023/09/22 08:29:24;;;;;;;;;;;;;;;;;;6333382;27;20510;-74
2023/09/22 08:32:24;;;;;;;;;;;;;;;;;;6332951;27;19976;-71
2023/09/22 08:35:24;;;;;;;;;;;;;;;;;;6313426;27;19920;-72
2023/09/22 08:38:24;;;;;;;;;;;;;;;;;;6316014;27;19922;-73
2023/09/22 08:41:26;;;;;;;;;;;;;;;;;;6332631;27;19927;-72
2023/09/22 08:44:26;;;;;;;;;;;;;;;;;;6328907;27;19927;-78
2023/09/22 08:47:26;;;;;;;;;;;;;;;;;;6331177;27;20405;-72
2023/09/22 08:50:28;;;;;;;;;;;;;;;;;;6329302;27;19923;-74
2023/09/22 08:53:29;;;;;;;;;;;;;;;;;;6330127;27;20081;-75
2023/09/22 08:56:30;;;;;;;;;;;;;;;;;;6331184;27;20022;-73
2023/09/22 08:59:30;;;;;;;;;;;;;;;;;;6329844;27;19915;-73
2023/09/22 09:02:30;;;;;;;;;;;;;;;;;;6312984;27;19953;-75
2023/09/22 09:05:31;;;;;;;;;;;;;;;;;;6330943;27;20001;-75
2023/09/22 09:08:31;;;;;;;;;;;;;;;;;;6331255;27;21061;-73
2023/09/22 09:11:31;;;;;;;;;;;;;;;;;;6312471;27;19923;-73
2023/09/22 09:14:32;;;;;;;;;;;;;;;;;;6314237;27;20601;-73
2023/09/22 09:17:32;;;;;;;;;;;;;;;;;;6331762;27;20357;-72
2023/09/22 09:20:32;;;;;;;;;;;;;;;;;;6326723;27;19919;-72
2023/09/22 09:23:32;;;;;;;;;;;;;;;;;;6330595;27;20142;-74
2023/09/22 09:26:32;;;;;;;;;;;;;;;;;;6331661;27;20793;-79
2023/09/22 09:29:33;;;;;;;;;;;;;;;;;;6332004;27;19973;-76
2023/09/22 09:32:33;;;;;;;;;;;;;;;;;;6330008;27;19919;-74
2023/09/22 09:35:34;;;;;;;;;;;;;;;;;;6329913;27;19938;-75
2023/09/22 09:38:35;;;;;;;;;;;;;;;;;;6331256;27;19968;-73
2023/09/22 09:41:37;;;;;;;;;;;;;;;;;;6332036;27;19919;-71
2023/09/22 09:44:37;;;;;;;;;;;;;;;;;;6330647;27;20313;-72
2023/09/22 09:47:39;;;;;;;;;;;;;;;;;;6332306;27;19926;-72
2023/09/22 09:50:40;;;;;;;;;;;;;;;;;;6328273;27;20035;-73
2023/09/22 09:53:40;;;;;;;;;;;;;;;;;;6329003;27;19964;-73
2023/09/22 09:56:41;;;;;;;;;;;;;;;;;;6327276;27;20398;-73
2023/09/22 09:59:42;;;;;;;;;;;;;;;;;;6328594;27;20183;-73
2023/09/22 10:02:45;;;;;;;;;;;;;;;;;;6329031;27;19931;-75
2023/09/22 10:05:46;;;;;;;;;;;;;;;;;;6288670;28;19928;-73
2023/09/22 10:08:46;;;;;;;;;;;;;;;;;;6284518;28;19920;-74
2023/09/22 10:11:46;;;;;;;;;;;;;;;;;;6283760;28;19996;-76
2023/09/22 10:14:46;;;;;;;;;;;;;;;;;;6282659;28;20363;-72
2023/09/22 10:17:47;;;;;;;;;;;;;;;;;;6278383;28;19989;-72
2023/09/22 10:20:47;;;;;;;;;;;;;;;;;;6279066;28;19956;-73
2023/09/22 10:23:47;;;;;;;;;;;;;;;;;;6280147;28;19927;-73
2023/09/22 10:26:47;;;;;;;;;;;;;;;;;;6277614;28;20021;-73
2023/09/22 10:29:52;;;;;;;;;;;;;;;;;;6277117;28;19975;-73
2023/09/22 10:32:52;;;;;;;;;;;;;;;;;;6258193;28;19920;-73
2023/09/22 10:35:52;;;;;;;;;;;;;;;;;;6254858;28;19920;-72
2023/09/22 10:38:56;;;;;;;;;;;;;;;;;;6276096;28;19945;-74
2023/09/22 10:41:56;;;;;;;;;;;;;;;;;;6275863;28;19928;-73
2023/09/22 10:44:56;;;;;;;;;;;;;;;;;;6275195;28;21124;-73
2023/09/22 10:47:56;;;;;;;;;;;;;;;;;;6273799;28;20440;-74
2023/09/22 10:50:56;;;;;;;;;;;;;;;;;;6277436;28;19924;-73
2023/09/22 10:53:57;;;;;;;;;;;;;;;;;;6277046;28;20243;-74
2023/09/22 10:56:57;;;;;;;;;;;;;;;;;;6260603;28;19920;-75
2023/09/22 10:59:58;;;;;;;;;;;;;;;;;;6279476;28;20001;-75
2023/09/22 11:02:58;;;;;;;;;;;;;;;;;;6279403;28;20370;-74
2023/09/22 11:05:58;;;;;;;;;;;;;;;;;;6290155;28;20382;-71
2023/09/22 11:08:59;;;;;;;;;;;;;;;;;;6307494;28;20065;-72
2023/09/22 11:11:59;;;;;;;;;;;;;;;;;;6304165;28;20374;-72
2023/09/22 11:14:59;;;;;;;;;;;;;;;;;;6305145;28;19920;-73
2023/09/22 11:17:59;;;;;;;;;;;;;;;;;;6306024;28;20010;-73
2023/09/22 11:21:00;;;;;;;;;;;;;;;;;;6302734;28;20409;-72
2023/09/22 11:24:03;;;;;;;;;;;;;;;;;;6295515;28;19923;-71
2023/09/22 11:27:04;;;;;;;;;;;;;;;;;;6304712;28;19927;-72
2023/09/22 11:30:05;;;;;;;;;;;;;;;;;;6282047;28;19956;-71
2023/09/22 11:33:05;;;;;;;;;;;;;;;;;;6303753;28;20014;-72
2023/09/22 11:36:06;;;;;;;;;;;;;;;;;;6303437;28;20003;-72
2023/09/22 11:39:08;;;;;;;;;;;;;;;;;;6329544;28;20018;-73
2023/09/22 11:42:09;;;;;;;;;;;;;;;;;;6330906;28;20493;-73
2023/09/22 11:45:09;;;;;;;;;;;;;;;;;;6336374;27;19920;-73
2023/09/22 11:48:09;;;;;;;;;;;;;;;;;;6334651;27;19919;-72
2023/09/22 11:51:09;;;;;;;;;;;;;;;;;;6334906;27;19967;-73
2023/09/22 11:54:09;;;;;;;;;;;;;;;;;;6334771;27;20034;-73
2023/09/22 11:57:09;;;;;;;;;;;;;;;;;;6334211;27;19920;-74
2023/09/22 12:00:13;;;;;;;;;;;;;;;;;;6337923;27;19915;-77
2023/09/22 12:03:14;;;;;;;;;;;;;;;;;;6335709;27;19920;-75
2023/09/22 12:06:15;;;;;;;;;;;;;;;;;;6332832;27;19950;-77
2023/09/22 12:09:17;;;;;;;;;;;;;;;;;;6331876;27;20012;-77
2023/09/22 12:12:20;;;;;;;;;;;;;;;;;;6334230;27;19923;-76
2023/09/22 12:15:21;;;;;;;;;;;;;;;;;;6335679;27;19930;-77
2023/09/22 12:18:21;;;;;;;;;;;;;;;;;;6333393;27;19920;-75
2023/09/22 12:21:21;;;;;;;;;;;;;;;;;;6315339;27;19955;-73
2023/09/22 12:24:23;;;;;;;;;;;;;;;;;;6332980;27;19950;-74
2023/09/22 12:27:23;;;;;;;;;;;;;;;;;;6334803;27;20358;-76
2023/09/22 12:30:25;;;;;;;;;;;;;;;;;;6338086;27;19988;-74
2023/09/22 12:33:25;;;;;;;;;;;;;;;;;;6336809;27;19920;-73
2023/09/22 12:36:26;;;;;;;;;;;;;;;;;;6338068;27;19963;-73
2023/09/22 12:39:27;;;;;;;;;;;;;;;;;;6337828;27;19930;-74
2023/09/22 12:42:28;;;;;;;;;;;;;;;;;;6337355;27;19930;-73
2023/09/22 12:45:28;;;;;;;;;;;;;;;;;;6317880;27;19920;-75
2023/09/22 12:48:28;;;;;;;;;;;;;;;;;;6336902;27;19953;-75
2023/09/22 12:51:28;;;;;;;;;;;;;;;;;;6334750;27;20346;-75
2023/09/22 12:54:28;;;;;;;;;;;;;;;;;;6335135;27;19926;-74
2023/09/22 12:57:29;;;;;;;;;;;;;;;;;;6336002;27;20280;-74
2023/09/22 13:00:30;;;;;;;;;;;;;;;;;;6336811;27;20044;-76
2023/09/22 13:03:33;;;;;;;;;;;;;;;;;;6314109;27;19920;-73
2023/09/22 13:06:34;;;;;;;;;;;;;;;;;;6336709;27;19927;-75
2023/09/22 13:09:34;;;;;;;;;;;;;;;;;;6318365;27;19927;-75
2023/09/22 13:12:35;;;;;;;;;;;;;;;;;;6338090;27;20022;-75
2023/09/22 13:15:44;;;;;;;;;;;;;;;;;;6334380;27;20120;-76
2023/09/22 13:18:47;;;;;;;;;;;;;;;;;;6334042;27;19945;-75
2023/09/22 13:21:49;;;;;;;;;;;;;;;;;;6336301;27;19945;-75
2023/09/22 13:24:49;;;;;;;;;;;;;;;;;;6336102;27;19927;-75
2023/09/22 13:27:49;;;;;;;;;;;;;;;;;;6337653;27;20042;-73
2023/09/22 13:30:54;;;;;;;;;;;;;;;;;;6333146;27;19949;-75
2023/09/22 13:33:56;;;;;;;;;;;;;;;;;;6335342;27;20245;-73
2023/09/22 13:36:57;;;;;;;;;;;;;;;;;;6334919;27;19919;-73
2023/09/22 13:39:57;;;;;;;;;;;;;;;;;;6315786;27;20423;-73
2023/09/22 13:42:58;;;;;;;;;;;;;;;;;;6334196;27;19920;-75
2023/09/22 13:45:58;;;;;;;;;;;;;;;;;;6314901;27;19924;-74
2023/09/22 13:48:58;;;;;;;;;;;;;;;;;;6310060;27;20479;-74
2023/09/22 13:51:58;;;;;;;;;;;;;;;;;;6334996;27;20393;-74
2023/09/22 13:54:58;;;;;;;;;;;;;;;;;;6333203;27;20527;-75
2023/09/22 13:57:59;;;;;;;;;;;;;;;;;;6335184;27;19920;-77
2023/09/22 14:00:59;;;;;;;;;;;;;;;;;;6333264;27;19926;-74
2023/09/22 14:03:59;;;;;;;;;;;;;;;;;;6330689;27;20646;-75
2023/09/22 14:07:00;;;;;;;;;;;;;;;;;;6334029;27;19923;-74
2023/09/22 14:10:00;;;;;;;;;;;;;;;;;;6315065;27;19923;-74
2023/09/22 14:13:00;;;;;;;;;;;;;;;;;;6338923;27;20582;-76
2023/09/22 14:16:01;;;;;;;;;;;;;;;;;;6336905;27;19963;-74
2023/09/22 14:19:01;;;;;;;;;;;;;;;;;;6312597;27;19915;-74
2023/09/22 14:22:02;;;;;;;;;;;;;;;;;;6335159;27;19915;-74
2023/09/22 14:25:03;;;;;;;;;;;;;;;;;;6334638;27;20971;-75
2023/09/22 14:28:03;;;;;;;;;;;;;;;;;;6317547;27;20006;-74
2023/09/22 14:31:04;;;;;;;;;;;;;;;;;;6337042;27;20318;-75
2023/09/22 14:34:04;;;;;;;;;;;;;;;;;;6333538;27;19920;-75
2023/09/22 14:37:05;;;;;;;;;;;;;;;;;;6333453;27;19919;-75
2023/09/22 14:40:05;;;;;;;;;;;;;;;;;;6334987;27;20095;-75
2023/09/22 14:43:05;;;;;;;;;;;;;;;;;;6332661;27;19998;-75
2023/09/22 14:46:05;;;;;;;;;;;;;;;;;;6331778;27;19920;-74
2023/09/22 14:49:05;;;;;;;;;;;;;;;;;;6332179;27;20334;-75
2023/09/22 14:52:06;;;;;;;;;;;;;;;;;;6332041;27;20408;-74
2023/09/22 14:55:06;;;;;;;;;;;;;;;;;;6333152;27;20024;-75
2023/09/22 14:58:06;;;;;;;;;;;;;;;;;;6334642;27;19915;-74
2023/09/22 15:01:07;;;;;;;;;;;;;;;;;;6310511;27;19915;-72
2023/09/22 15:04:07;;;;;;;;;;;;;;;;;;6327089;27;21238;-74
2023/09/22 15:07:07;;;;;;;;;;;;;;;;;;6328441;27;19931;-79
2023/09/22 15:10:07;;;;;;;;;;;;;;;;;;6331771;27;20002;-79
2023/09/22 15:13:15;;;;;;;;;;;;;;;;;;6327652;27;19924;-77
2023/09/22 15:16:16;;;;;;;;;;;;;;;;;;6335060;27;20207;-79
2023/09/22 15:19:16;;;;;;;;;;;;;;;;;;6331300;27;19943;-81
2023/09/22 15:22:19;;;;;;;;;;;;;;;;;;6339664;27;19927;-80
2023/09/22 15:25:19;;;;;;;;;;;;;;;;;;6339336;27;19919;-81
2023/09/22 15:28:19;;;;;;;;;;;;;;;;;;6338588;27;19981;-80
2023/09/22 15:31:20;;;;;;;;;;;;;;;;;;6330363;27;19930;-74
2023/09/22 15:34:22;;;;;;;;;;;;;;;;;;6332214;28;19926;-74
2023/09/22 15:37:22;;;;;;;;;;;;;;;;;;6330298;28;19916;-75
2023/09/22 15:40:24;;;;;;;;;;;;;;;;;;6334285;28;20674;-77
2023/09/22 15:43:25;;;;;;;;;;;;;;;;;;6329230;28;20381;-74
2023/09/22 15:46:25;;;;;;;;;;;;;;;;;;6330358;28;20385;-73
2023/09/22 15:49:25;;;;;;;;;;;;;;;;;;6310565;28;20021;-74
2023/09/22 15:52:26;;;;;;;;;;;;;;;;;;6311940;28;19926;-74
2023/09/22 15:55:26;;;;;;;;;;;;;;;;;;6313326;28;19966;-74
2023/09/22 15:58:27;;;;;;;;;;;;;;;;;;6331584;28;19930;-73
2023/09/22 16:01:27;;;;;;;;;;;;;;;;;;6316595;28;20331;-73
2023/09/22 16:04:27;;;;;;;;;;;;;;;;;;6330665;28;20103;-74
2023/09/22 16:07:27;;;;;;;;;;;;;;;;;;6331474;28;19946;-74
2023/09/22 16:10:27;;;;;;;;;;;;;;;;;;6331429;28;19973;-74
2023/09/22 16:13:28;;;;;;;;;;;;;;;;;;6332089;28;19976;-74
2023/09/22 16:16:29;;;;;;;;;;;;;;;;;;6312492;28;19996;-72
2023/09/22 16:19:29;;;;;;;;;;;;;;;;;;6311104;28;20579;-73
2023/09/22 16:22:30;;;;;;;;;;;;;;;;;;6314912;28;19927;-73
2023/09/22 16:25:30;;;;;;;;;;;;;;;;;;6332412;28;20365;-73
2023/09/22 16:28:31;;;;;;;;;;;;;;;;;;6331859;27;20010;-73
2023/09/22 16:31:31;;;;;;;;;;;;;;;;;;6336345;27;19931;-74
2023/09/22 16:34:32;;;;;;;;;;;;;;;;;;6331713;27;19959;-73
2023/09/22 16:37:32;;;;;;;;;;;;;;;;;;6338934;27;19920;-73
2023/09/22 16:40:32;;;;;;;;;;;;;;;;;;6338726;27;19923;-73
2023/09/22 16:43:33;;;;;;;;;;;;;;;;;;6336933;27;19931;-74
2023/09/22 16:46:33;;;;;;;;;;;;;;;;;;6316872;27;21186;-73
2023/09/22 16:49:33;;;;;;;;;;;;;;;;;;6334839;27;19950;-74
2023/09/22 16:52:35;;;;;;;;;;;;;;;;;;6336732;27;19943;-73
2023/09/22 16:55:35;;;;;;;;;;;;;;;;;;6337529;27;19920;-74
2023/09/22 16:58:35;;;;;;;;;;;;;;;;;;6337674;27;19926;-73
2023/09/22 17:01:36;;;;;;;;;;;;;;;;;;6318437;27;19919;-73
2023/09/22 17:04:36;;;;;;;;;;;;;;;;;;6333871;27;19920;-73
2023/09/22 17:07:36;;;;;;;;;;;;;;;;;;6336152;27;19927;-73
2023/09/22 17:10:38;;;;;;;;;;;;;;;;;;6334333;27;19942;-73
2023/09/22 17:13:39;;;;;;;;;;;;;;;;;;6335419;27;19915;-75
2023/09/22 17:16:39;;;;;;;;;;;;;;;;;;6338135;27;20025;-74
2023/09/22 17:19:39;;;;;;;;;;;;;;;;;;6335226;27;20518;-74
2023/09/22 17:22:40;;;;;;;;;;;;;;;;;;6336877;27;19988;-74
2023/09/22 17:25:40;;;;;;;;;;;;;;;;;;6337318;27;19920;-74
2023/09/22 17:28:40;;;;;;;;;;;;;;;;;;6317071;27;19919;-73
2023/09/22 17:31:40;;;;;;;;;;;;;;;;;;6336306;27;19931;-74
2023/09/22 17:34:40;;;;;;;;;;;;;;;;;;6335749;27;20026;-73
2023/09/22 17:37:40;;;;;;;;;;;;;;;;;;6337425;27;19923;-73
2023/09/22 17:40:41;;;;;;;;;;;;;;;;;;6315048;27;19924;-73
2023/09/22 17:43:41;;;;;;;;;;;;;;;;;;6319081;27;19998;-74
2023/09/22 17:46:42;;;;;;;;;;;;;;;;;;6316570;27;20714;-73
2023/09/22 17:49:42;;;;;;;;;;;;;;;;;;6333857;27;19966;-73
2023/09/22 17:52:42;;;;;;;;;;;;;;;;;;6332559;27;21999;-75
2023/09/22 17:55:45;;;;;;;;;;;;;;;;;;6329327;27;19920;-73
2023/09/22 17:58:46;;;;;;;;;;;;;;;;;;6333604;27;19920;-74
2023/09/22 18:01:51;;;;;;;;;;;;;;;;;;6336104;27;19934;-72
2023/09/22 18:04:51;;;;;;;;;;;;;;;;;;6333049;27;19923;-75
2023/09/22 18:07:51;;;;;;;;;;;;;;;;;;6333461;27;19955;-73
2023/09/22 18:10:51;;;;;;;;;;;;;;;;;;6333942;27;19923;-74
2023/09/22 18:13:51;;;;;;;;;;;;;;;;;;6333904;27;19926;-73
2023/09/22 18:16:51;;;;;;;;;;;;;;;;;;6333395;27;19927;-75
2023/09/22 18:19:51;;;;;;;;;;;;;;;;;;6314961;27;19979;-74
2023/09/22 18:22:53;;;;;;;;;;;;;;;;;;6333716;27;19928;-74
2023/09/22 18:25:54;;;;;;;;;;;;;;;;;;6334658;27;19926;-75
2023/09/22 18:28:54;;;;;;;;;;;;;;;;;;6335173;27;20301;-75
2023/09/22 18:31:54;;;;;;;;;;;;;;;;;;6334874;27;19931;-73
2023/09/22 18:34:54;;;;;;;;;;;;;;;;;;6331521;27;19930;-73
2023/09/22 18:37:54;;;;;;;;;;;;;;;;;;6334976;27;19923;-73
2023/09/22 18:40:54;;;;;;;;;;;;;;;;;;6334753;27;19919;-74
2023/09/22 18:43:54;;;;;;;;;;;;;;;;;;6332213;27;19926;-75
2023/09/22 18:46:55;;;;;;;;;;;;;;;;;;6333151;27;19993;-75
2023/09/22 18:49:56;;;;;;;;;;;;;;;;;;6332740;27;20649;-74
2023/09/22 18:52:56;;;;;;;;;;;;;;;;;;6314005;27;20281;-75
2023/09/22 18:55:56;;;;;;;;;;;;;;;;;;6332990;27;19919;-74
2023/09/22 18:58:57;;;;;;;;;;;;;;;;;;6318787;27;19958;-75
2023/09/22 19:01:58;;;;;;;;;;;;;;;;;;6333307;27;19939;-74
2023/09/22 19:04:58;;;;;;;;;;;;;;;;;;6329940;27;21226;-74
2023/09/22 19:07:59;;;;;;;;;;;;;;;;;;6331983;27;19943;-73
2023/09/22 19:11:00;;;;;;;;;;;;;;;;;;6335567;27;19923;-73
2023/09/22 19:14:02;;;;;;;;;;;;;;;;;;6334236;27;19922;-75
2023/09/22 19:17:02;;;;;;;;;;;;;;;;;;6335619;27;19947;-75
2023/09/22 19:20:05;;;;;;;;;;;;;;;;;;6332224;27;19945;-74
2023/09/22 19:23:07;;;;;;;;;;;;;;;;;;6332904;27;19919;-75
2023/09/22 19:26:08;;;;;;;;;;;;;;;;;;6314943;27;20040;-74
2023/09/22 19:29:09;;;;;;;;;;;;;;;;;;6332588;27;19920;-75
2023/09/22 19:32:09;;;;;;;;;;;;;;;;;;6316487;27;19950;-75
2023/09/22 19:35:13;;;;;;;;;;;;;;;;;;6330938;28;20338;-76
2023/09/22 19:38:13;;;;;;;;;;;;;;;;;;6314294;28;19924;-75
2023/09/22 19:41:13;;;;;;;;;;;;;;;;;;6331401;28;20635;-75
2023/09/22 19:44:13;;;;;;;;;;;;;;;;;;6314840;28;19954;-75
2023/09/22 19:47:14;;;;;;;;;;;;;;;;;;6324558;28;19963;-75
2023/09/22 19:50:14;;;;;;;;;;;;;;;;;;6289227;28;19924;-74
2023/09/22 19:53:14;;;;;;;;;;;;;;;;;;6304978;28;19954;-74
2023/09/22 19:56:16;;;;;;;;;;;;;;;;;;6307040;28;19962;-75
2023/09/22 19:59:16;;;;;;;;;;;;;;;;;;6307461;28;19926;-74
2023/09/22 20:02:19;;;;;;;;;;;;;;;;;;6305812;28;20015;-75
2023/09/22 20:05:19;;;;;;;;;;;;;;;;;;6302036;28;19923;-75
2023/09/22 20:08:20;;;;;;;;;;;;;;;;;;6292921;28;19977;-75
2023/09/22 20:11:21;;;;;;;;;;;;;;;;;;6310639;28;19974;-74
2023/09/22 20:14:28;;;;;;;;;;;;;;;;;;6311972;28;20325;-75
2023/09/22 20:17:28;;;;;;;;;;;;;;;;;;6310873;27;20009;-75
2023/09/22 20:20:28;;;;;;;;;;;;;;;;;;6309420;28;20023;-75
2023/09/22 20:23:28;;;;;;;;;;;;;;;;;;6312101;28;20437;-74
2023/09/22 20:26:30;;;;;;;;;;;;;;;;;;6308511;27;20003;-75
2023/09/22 20:29:30;;;;;;;;;;;;;;;;;;6312912;28;20388;-76
2023/09/22 20:32:30;;;;;;;;;;;;;;;;;;6312334;28;19923;-73